Time;durP1;ratioP1;P1;durP2;ratioP2;P2;SDS_P1;SDS_P2;PMS_P1;PMS_P2;Temp;Humidity;BMP_temperature;BMP_pressure;BME280_temperature;BME280_humidity;BME280_pressure;Samples;Min_cycle;Max_cycle;Signal;HPM_P1;HPM_P2
2021/06/23 00:02:15;;;;;;;4.25;1.80;;;15.20;78.90;;;;;;5009513;28;20025;-73
2021/06/23 00:04:42;;;;;;;6.85;1.77;;;15.10;79.00;;;;;;5009118;28;20030;-73
2021/06/23 00:07:08;;;;;;;5.15;1.77;;;15.00;79.20;;;;;;5006996;28;20029;-73
2021/06/23 00:09:33;;;;;;;6.80;1.88;;;15.00;79.50;;;;;;5006591;28;20408;-73
2021/06/23 00:11:59;;;;;;;6.22;2.42;;;15.00;79.70;;;;;;5008542;28;20081;-73
2021/06/23 00:14:25;;;;;;;10.30;2.47;;;15.00;79.80;;;;;;5007404;28;20045;-73
2021/06/23 00:16:50;;;;;;;11.07;2.10;;;15.00;80.00;;;;;;5008841;28;20342;-73
2021/06/23 00:19:16;;;;;;;;;;;15.00;79.50;;;;;;5006312;28;20116;-73
2021/06/23 00:21:41;;;;;;;6.80;2.13;;;15.00;79.40;;;;;;5008349;28;20383;-73
2021/06/23 00:24:07;;;;;;;10.25;1.92;;;15.00;79.50;;;;;;5005940;28;20027;-73
2021/06/23 00:26:33;;;;;;;;;;;14.90;79.60;;;;;;5006630;28;20404;-73
2021/06/23 00:28:59;;;;;;;4.15;1.65;;;14.90;79.90;;;;;;5006280;28;19920;-73
2021/06/23 00:31:26;;;;;;;;;;;14.80;80.50;;;;;;5008322;28;20034;-73
2021/06/23 00:33:53;;;;;;;11.82;2.72;;;14.80;80.10;;;;;;5007744;28;19920;-73
2021/06/23 00:36:18;;;;;;;6.38;1.98;;;14.80;80.10;;;;;;5008486;28;20565;-73
2021/06/23 00:38:44;;;;;;;;;;;14.90;80.60;;;;;;5005599;28;20124;-73
2021/06/23 00:41:16;;;;;;;7.05;2.03;;;14.90;80.20;;;;;;5008110;28;19909;-73
2021/06/23 00:43:41;;;;;;;12.68;1.90;;;14.90;80.60;;;;;;5005930;28;20025;-73
2021/06/23 00:46:07;;;;;;;;;;;14.90;80.60;;;;;;5010079;28;20041;-73
2021/06/23 00:48:32;;;;;;;10.35;2.22;;;14.90;80.30;;;;;;5004704;28;19933;-74
2021/06/23 00:51:00;;;;;;;13.25;2.03;;;14.80;80.20;;;;;;5008049;28;20038;-74
2021/06/23 00:53:26;;;;;;;5.18;1.77;;;14.90;81.10;;;;;;5007605;28;20101;-73
2021/06/23 00:55:54;;;;;;;3.55;1.27;;;14.90;80.40;;;;;;5010299;28;20026;-73
2021/06/23 00:58:20;;;;;;;4.38;1.75;;;14.90;80.30;;;;;;5004664;28;20070;-73
2021/06/23 01:00:46;;;;;;;8.25;1.50;;;14.90;80.50;;;;;;5008587;28;20029;-74
2021/06/23 01:03:12;;;;;;;8.90;1.92;;;14.90;80.60;;;;;;5006942;28;20104;-74
2021/06/23 01:05:38;;;;;;;5.90;2.08;;;14.90;80.60;;;;;;5005023;28;20489;-73
2021/06/23 01:08:07;;;;;;;9.02;2.03;;;14.90;80.30;;;;;;5006208;28;20476;-73
2021/06/23 01:10:34;;;;;;;12.88;2.45;;;14.80;80.60;;;;;;5009123;28;20022;-73
2021/06/23 01:13:03;;;;;;;6.90;1.90;;;14.80;80.70;;;;;;5004395;28;20521;-73
2021/06/23 01:15:28;;;;;;;8.70;2.17;;;14.80;80.50;;;;;;5007142;28;20085;-73
2021/06/23 01:17:55;;;;;;;9.20;3.17;;;14.70;81.00;;;;;;5007064;28;20034;-73
2021/06/23 01:20:20;;;;;;;8.60;1.65;;;14.70;81.10;;;;;;5007522;28;20022;-73
2021/06/23 01:22:46;;;;;;;10.45;1.90;;;14.70;81.00;;;;;;5008615;28;20060;-73
2021/06/23 01:25:14;;;;;;;8.73;2.35;;;14.70;81.10;;;;;;5006940;28;20066;-73
2021/06/23 01:27:42;;;;;;;7.35;1.50;;;14.70;81.80;;;;;;5008538;28;20037;-73
2021/06/23 01:30:11;;;;;;;7.65;1.70;;;14.70;82.00;;;;;;5003244;28;20092;-73
2021/06/23 01:32:37;;;;;;;12.25;2.75;;;14.70;82.30;;;;;;5009283;28;20029;-73
2021/06/23 01:35:03;;;;;;;12.25;2.33;;;14.70;82.40;;;;;;5007589;28;20103;-73
2021/06/23 01:37:29;;;;;;;10.07;2.45;;;14.70;82.30;;;;;;5008378;28;20067;-73
2021/06/23 01:39:55;;;;;;;7.13;2.17;;;14.60;82.30;;;;;;5003797;28;20448;-73
2021/06/23 01:42:20;;;;;;;11.85;3.25;;;14.60;82.50;;;;;;5007607;28;20393;-73
2021/06/23 01:44:46;;;;;;;11.88;2.55;;;14.60;82.60;;;;;;5006133;28;20026;-73
2021/06/23 01:47:11;;;;;;;;;;;14.60;82.70;;;;;;5006034;28;20041;-73
2021/06/23 01:49:37;;;;;;;8.40;2.10;;;14.60;83.20;;;;;;5003040;28;19913;-73
2021/06/23 01:52:03;;;;;;;9.27;1.90;;;14.50;82.90;;;;;;5007643;28;20489;-73
2021/06/23 01:54:28;;;;;;;6.75;2.17;;;14.50;83.00;;;;;;5004684;28;20032;-73
2021/06/23 01:56:54;;;;;;;;;;;14.50;82.80;;;;;;5007594;28;20065;-73
2021/06/23 01:59:19;;;;;;;6.63;2.83;;;14.50;82.90;;;;;;5020876;28;20404;-73
2021/06/23 02:01:58;;;;;;;15.52;2.35;;;14.50;82.70;;;;;;5002439;28;20026;-73
2021/06/23 02:04:48;;;;;;;6.68;2.30;;;14.50;82.80;;;;;;5006103;28;20116;-73
2021/06/23 02:07:51;;;;;;;12.30;2.40;;;14.50;82.90;;;;;;5006637;28;20038;-73
2021/06/23 02:10:27;;;;;;;6.93;2.08;;;14.40;82.70;;;;;;5004632;28;20040;-73
2021/06/23 02:13:12;;;;;;;10.85;2.05;;;14.40;82.80;;;;;;5005855;28;20054;-73
2021/06/23 02:15:40;;;;;;;9.60;1.67;;;14.40;82.80;;;;;;5007516;28;20076;-73
2021/06/23 02:18:07;;;;;;;12.20;2.78;;;14.30;82.80;;;;;;5006717;28;20377;-73
2021/06/23 02:20:34;;;;;;;5.47;2.47;;;14.30;82.90;;;;;;5002647;28;20029;-73
2021/06/23 02:23:04;;;;;;;5.82;2.10;;;14.30;83.00;;;;;;5006775;28;20503;-73
2021/06/23 02:25:30;;;;;;;8.30;2.28;;;14.30;83.30;;;;;;5007050;28;20042;-73
2021/06/23 02:27:55;;;;;;;;;;;14.30;83.00;;;;;;5008253;28;20040;-73
2021/06/23 02:30:21;;;;;;;10.05;2.72;;;14.20;83.00;;;;;;5005296;28;19924;-73
2021/06/23 02:32:47;;;;;;;;;;;14.20;83.00;;;;;;5008330;28;20038;-73
2021/06/23 02:35:13;;;;;;;6.47;1.98;;;14.30;82.50;;;;;;5005168;28;19909;-73
2021/06/23 02:37:39;;;;;;;10.77;2.28;;;14.20;82.50;;;;;;5006573;28;20041;-74
2021/06/23 02:40:06;;;;;;;;;;;14.20;82.80;;;;;;5002316;28;20049;-73
2021/06/23 02:42:31;;;;;;;;;;;14.20;83.20;;;;;;5004245;28;19937;-73
2021/06/23 02:44:57;;;;;;;7.20;1.85;;;14.20;83.00;;;;;;5017416;28;20361;-73
2021/06/23 02:47:23;;;;;;;;;;;14.20;83.10;;;;;;5010887;28;20030;-73
2021/06/23 02:49:49;;;;;;;6.15;1.92;;;14.10;83.30;;;;;;5007299;28;19921;-73
2021/06/23 02:52:17;;;;;;;7.38;1.83;;;14.10;83.40;;;;;;5008068;28;20083;-73
2021/06/23 02:54:44;;;;;;;9.57;2.90;;;14.10;83.60;;;;;;5006780;28;20104;-73
2021/06/23 02:57:10;;;;;;;9.20;2.08;;;14.10;83.50;;;;;;5010305;28;20030;-73
2021/06/23 02:59:36;;;;;;;7.95;1.92;;;14.10;84.00;;;;;;5007894;28;20061;-73
2021/06/23 03:02:04;;;;;;;7.45;2.42;;;14.00;83.70;;;;;;5010600;28;20503;-73
2021/06/23 03:04:30;;;;;;;7.30;2.30;;;14.10;83.60;;;;;;5007916;28;20031;-73
2021/06/23 03:07:05;;;;;;;6.43;1.65;;;14.10;83.70;;;;;;5008579;28;20041;-73
2021/06/23 03:09:31;;;;;;;9.98;3.08;;;14.10;83.40;;;;;;5007678;28;20034;-73
2021/06/23 03:11:56;;;;;;;;;;;14.10;83.10;;;;;;5010617;28;20117;-73
2021/06/23 03:14:22;;;;;;;4.82;1.52;;;14.10;83.00;;;;;;5007698;28;19913;-73
2021/06/23 03:16:47;;;;;;;;;;;14.10;83.20;;;;;;5010094;28;20025;-73
2021/06/23 03:19:15;;;;;;;9.57;1.52;;;14.20;83.40;;;;;;5007196;28;20278;-73
2021/06/23 03:21:41;;;;;;;6.60;2.08;;;14.10;83.30;;;;;;5010804;28;20034;-73
2021/06/23 03:24:06;;;;;;;;;;;14.10;83.40;;;;;;5010945;28;20674;-73
2021/06/23 03:26:32;;;;;;;4.20;2.03;;;14.20;83.80;;;;;;5008089;28;20003;-73
2021/06/23 03:29:11;;;;;;;;;;;14.20;83.70;;;;;;5009155;28;20030;-73
2021/06/23 03:31:36;;;;;;;9.80;2.10;;;14.20;84.00;;;;;;5008835;28;19916;-73
2021/06/23 03:34:02;;;;;;;;;;;14.10;83.60;;;;;;5010721;28;20029;-73
2021/06/23 03:36:27;;;;;;;8.80;2.45;;;14.10;84.10;;;;;;5007875;28;19929;-73
2021/06/23 03:38:53;;;;;;;;;;;14.20;84.20;;;;;;5007961;28;20034;-73
2021/06/23 03:41:18;;;;;;;12.35;2.45;;;14.20;84.40;;;;;;5007135;28;19916;-73
2021/06/23 03:43:44;;;;;;;;;;;14.20;84.10;;;;;;5004532;28;20377;-74
2021/06/23 03:46:09;;;;;;;9.23;2.05;;;14.30;84.00;;;;;;5009553;28;19913;-73
2021/06/23 03:48:35;;;;;;;;;;;14.30;84.10;;;;;;5008762;28;20033;-73
2021/06/23 03:51:00;;;;;;;9.27;2.50;;;14.30;84.10;;;;;;5008026;28;19918;-73
2021/06/23 03:53:26;;;;;;;;;;;14.30;84.20;;;;;;5007697;28;20062;-73
2021/06/23 03:55:51;;;;;;;11.55;2.92;;;14.30;84.00;;;;;;5017819;28;19920;-73
2021/06/23 03:58:17;;;;;;;6.63;2.53;;;14.30;84.40;;;;;;5007243;28;20485;-73
2021/06/23 04:00:42;;;;;;;9.85;2.05;;;14.30;84.30;;;;;;5002658;28;20117;-73
2021/06/23 04:03:08;;;;;;;;;;;14.30;84.40;;;;;;5010543;28;20032;-73
2021/06/23 04:05:33;;;;;;;10.93;2.15;;;14.20;84.40;;;;;;5022707;28;20356;-73
2021/06/23 04:07:59;;;;;;;;;;;14.20;84.10;;;;;;5007051;28;20026;-73
2021/06/23 04:10:24;;;;;;;17.45;2.50;;;14.30;84.20;;;;;;5007966;28;19910;-74
2021/06/23 04:12:50;;;;;;;;;;;14.30;84.10;;;;;;5008425;28;20034;-73
2021/06/23 04:15:16;;;;;;;9.07;2.60;;;14.30;84.00;;;;;;5005744;28;20005;-73
2021/06/23 04:17:41;;;;;;;;;;;14.30;83.60;;;;;;5008654;28;20382;-73
2021/06/23 04:20:08;;;;;;;8.52;2.35;;;14.30;83.60;;;;;;5003807;28;20011;-73
2021/06/23 04:22:34;;;;;;;9.20;2.03;;;14.30;83.60;;;;;;5004069;28;20029;-73
2021/06/23 04:25:00;;;;;;;;;;;14.40;83.50;;;;;;5001313;28;20045;-73
2021/06/23 04:27:25;;;;;;;11.80;2.10;;;14.40;83.80;;;;;;5006182;28;20000;-73
2021/06/23 04:29:51;;;;;;;12.18;3.80;;;14.50;83.80;;;;;;5002143;28;20042;-73
2021/06/23 04:32:17;;;;;;;;;;;14.50;83.70;;;;;;5002933;28;20030;-72
2021/06/23 04:34:42;;;;;;;9.57;3.30;;;14.50;83.70;;;;;;5008876;28;20353;-72
2021/06/23 04:37:08;;;;;;;12.35;2.70;;;14.60;83.70;;;;;;5005523;28;20374;-74
2021/06/23 04:39:34;;;;;;;6.97;2.53;;;14.60;83.70;;;;;;5007616;28;20038;-72
2021/06/23 04:41:59;;;;;;;;;;;14.70;83.50;;;;;;5006087;28;20389;-72
2021/06/23 04:44:25;;;;;;;14.30;4.25;;;14.70;83.70;;;;;;5006199;28;19955;-72
2021/06/23 04:46:50;;;;;;;;;;;14.80;83.60;;;;;;5007304;28;20025;-72
2021/06/23 04:49:16;;;;;;;20.95;10.18;;;14.90;83.30;;;;;;4996084;28;19910;-72
2021/06/23 04:51:42;;;;;;;8.23;3.90;;;15.00;83.30;;;;;;5001361;28;20026;-72
2021/06/23 04:54:08;;;;;;;10.32;4.80;;;15.10;82.70;;;;;;5004940;28;20045;-72
2021/06/23 04:56:33;;;;;;;;;;;15.00;81.20;;;;;;5004475;28;20038;-72
2021/06/23 04:58:59;;;;;;;21.45;6.45;;;15.00;81.20;;;;;;5006186;28;19909;-72
2021/06/23 05:01:25;;;;;;;10.18;2.28;;;15.00;81.50;;;;;;5006781;28;20117;-72
2021/06/23 05:03:51;;;;;;;7.97;2.90;;;15.10;81.80;;;;;;5005459;28;20040;-72
2021/06/23 05:06:16;;;;;;;;;;;15.00;81.80;;;;;;5005771;28;20029;-72
2021/06/23 05:08:42;;;;;;;11.95;2.55;;;15.00;82.10;;;;;;5004036;28;19909;-72
2021/06/23 05:11:07;;;;;;;8.35;2.50;;;14.90;82.00;;;;;;5007638;28;20049;-72
2021/06/23 05:13:33;;;;;;;;;;;14.90;82.40;;;;;;5003413;28;20069;-72
2021/06/23 05:15:59;;;;;;;13.77;3.80;;;14.90;82.30;;;;;;5006437;28;20406;-72
2021/06/23 05:18:25;;;;;;;;;;;15.00;82.40;;;;;;5006584;28;20025;-72
2021/06/23 05:20:51;;;;;;;6.37;2.30;;;15.00;82.20;;;;;;5008365;28;19921;-73
2021/06/23 05:23:16;;;;;;;;;;;15.00;82.10;;;;;;5004320;28;20025;-73
2021/06/23 05:25:42;;;;;;;9.43;2.72;;;15.00;82.30;;;;;;5006202;28;19920;-73
2021/06/23 05:28:07;;;;;;;5.65;2.50;;;14.90;81.80;;;;;;5005509;28;20034;-73
2021/06/23 05:30:33;;;;;;;17.08;4.15;;;14.90;82.20;;;;;;5008105;28;20038;-73
2021/06/23 05:32:58;;;;;;;;;;;14.90;82.30;;;;;;5008373;28;20026;-73
2021/06/23 05:35:24;;;;;;;9.00;2.92;;;15.00;82.30;;;;;;5007068;28;19905;-73
2021/06/23 05:37:50;;;;;;;;;;;15.10;82.40;;;;;;5006938;28;20034;-73
2021/06/23 05:40:16;;;;;;;11.82;2.03;;;15.20;81.70;;;;;;4999137;28;19913;-73
2021/06/23 05:42:41;;;;;;;8.75;2.72;;;15.20;81.30;;;;;;5006760;28;20511;-73
2021/06/23 05:45:07;;;;;;;;;;;15.20;81.00;;;;;;5008751;28;20018;-73
2021/06/23 05:47:33;;;;;;;8.27;1.77;;;15.20;80.40;;;;;;5005333;28;20400;-73
2021/06/23 05:49:58;;;;;;;;;;;15.10;80.40;;;;;;5006595;28;20061;-73
2021/06/23 05:52:24;;;;;;;5.68;1.88;;;15.20;80.70;;;;;;5009177;28;19905;-73
2021/06/23 05:54:49;;;;;;;6.68;1.33;;;15.20;80.50;;;;;;5004335;28;20056;-73
2021/06/23 05:57:15;;;;;;;;;;;15.20;79.60;;;;;;5006657;28;20022;-73
2021/06/23 05:59:40;;;;;;;14.60;3.15;;;15.20;80.10;;;;;;5004196;28;22026;-72
2021/06/23 06:02:07;;;;;;;12.38;2.63;;;15.20;80.30;;;;;;5004611;28;20374;-72
2021/06/23 06:04:32;;;;;;;9.15;2.65;;;15.30;80.00;;;;;;5003075;28;20037;-72
2021/06/23 06:06:57;;;;;;;8.32;2.38;;;15.30;79.90;;;;;;5003451;28;20026;-73
2021/06/23 06:09:23;;;;;;;6.78;2.10;;;15.40;80.10;;;;;;5005259;28;20071;-73
2021/06/23 06:11:48;;;;;;;;;;;15.40;80.00;;;;;;5008667;28;20036;-73
2021/06/23 06:14:14;;;;;;;10.73;2.00;;;15.40;79.70;;;;;;5008389;28;19920;-73
2021/06/23 06:16:40;;;;;;;9.38;1.70;;;15.40;79.70;;;;;;5004041;28;20018;-73
2021/06/23 06:19:05;;;;;;;5.80;2.08;;;15.40;79.70;;;;;;5003228;28;20074;-73
2021/06/23 06:21:31;;;;;;;14.80;3.38;;;15.30;79.40;;;;;;5010884;28;20431;-73
2021/06/23 06:23:56;;;;;;;;;;;15.30;80.00;;;;;;5062527;23;20034;-74
2021/06/23 06:26:22;;;;;;;12.32;3.60;;;15.40;79.80;;;;;;4963898;28;19914;-75
2021/06/23 06:28:47;;;;;;;7.70;2.42;;;15.50;79.60;;;;;;4966889;28;20049;-76
2021/06/23 06:31:13;;;;;;;8.50;2.53;;;15.50;79.20;;;;;;4964562;28;20371;-75
2021/06/23 06:33:38;;;;;;;;;;;15.60;79.30;;;;;;4964708;28;20035;-75
2021/06/23 06:36:05;;;;;;;11.95;2.22;;;15.80;79.00;;;;;;4964623;28;19926;-73
2021/06/23 06:38:30;;;;;;;7.20;2.05;;;15.80;79.10;;;;;;4964677;28;20035;-71
2021/06/23 06:40:56;;;;;;;8.02;1.90;;;15.90;79.00;;;;;;4974959;28;20548;-77
2021/06/23 06:43:22;;;;;;;11.80;2.75;;;15.90;78.40;;;;;;4964459;28;20556;-71
2021/06/23 06:45:49;;;;;;;10.25;2.53;;;16.00;78.70;;;;;;4964012;28;20032;-71
2021/06/23 06:48:15;;;;;;;11.45;2.53;;;16.20;78.70;;;;;;4963641;28;20027;-72
2021/06/23 06:50:41;;;;;;;7.00;2.80;;;16.40;77.90;;;;;;4964556;28;20029;-71
2021/06/23 06:53:07;;;;;;;4.78;2.25;;;16.50;78.40;;;;;;4963825;28;20031;-71
2021/06/23 06:55:32;;;;;;;11.57;2.00;;;16.50;77.40;;;;;;4963858;28;20027;-71
2021/06/23 06:57:58;;;;;;;10.57;2.35;;;16.60;77.20;;;;;;4962497;28;20057;-71
2021/06/23 07:00:24;;;;;;;8.40;1.73;;;16.50;76.90;;;;;;4963686;28;20043;-73
2021/06/23 07:02:52;;;;;;;7.20;2.38;;;16.50;77.30;;;;;;4963075;28;20495;-74
2021/06/23 07:05:18;;;;;;;8.95;2.55;;;16.50;77.10;;;;;;4964203;28;20393;-73
2021/06/23 07:07:43;;;;;;;11.00;1.85;;;16.60;77.00;;;;;;4963423;28;20042;-75
2021/06/23 07:10:09;;;;;;;28.00;5.05;;;16.70;76.80;;;;;;4963285;28;20032;-74
2021/06/23 07:12:35;;;;;;;17.27;4.63;;;16.80;76.90;;;;;;4962693;28;20325;-74
2021/06/23 07:15:00;;;;;;;18.58;5.93;;;16.90;76.70;;;;;;4964071;28;20575;-74
2021/06/23 07:17:26;;;;;;;13.10;3.22;;;17.00;76.10;;;;;;4962575;28;20463;-72
2021/06/23 07:19:51;;;;;;;15.75;3.38;;;17.00;75.30;;;;;;4963995;28;20404;-69
2021/06/23 07:22:17;;;;;;;3.83;2.08;;;16.90;75.80;;;;;;4962586;28;20118;-71
2021/06/23 07:24:42;;;;;;;6.25;2.13;;;16.80;75.10;;;;;;4960347;28;20150;-72
2021/06/23 07:27:08;;;;;;;6.32;2.65;;;16.80;75.50;;;;;;4963160;28;20077;-72
2021/06/23 07:29:34;;;;;;;7.85;2.80;;;16.80;75.70;;;;;;4963103;28;20044;-72
2021/06/23 07:32:03;;;;;;;12.80;3.10;;;16.90;75.60;;;;;;4963366;28;20490;-73
2021/06/23 07:36:59;;;;;;;9.60;2.38;;;17.00;74.80;;;;;;4962750;28;20490;-72
2021/06/23 07:39:25;;;;;;;12.68;3.00;;;16.90;75.20;;;;;;4962615;28;20108;-71
2021/06/23 07:41:51;;;;;;;13.13;2.63;;;17.00;75.20;;;;;;4978340;28;20817;-71
2021/06/23 07:44:40;;;;;;;8.25;2.03;;;16.90;75.00;;;;;;4963255;28;20031;-71
2021/06/23 07:47:10;;;;;;;12.70;3.00;;;17.00;74.90;;;;;;4963951;28;20041;-71
2021/06/23 07:49:39;;;;;;;19.20;4.60;;;17.00;75.20;;;;;;4963127;28;20058;-70
2021/06/23 07:52:58;;;;;;;10.20;3.17;;;17.10;74.80;;;;;;4962826;28;20038;-70
2021/06/23 08:08:18;;;;;;;6.72;2.03;;;17.10;74.30;;;;;;4962289;28;20122;-73
2021/06/23 08:10:49;;;;;;;8.32;1.77;;;17.00;74.30;;;;;;4962451;28;20407;-73
2021/06/23 08:13:16;;;;;;;8.52;2.38;;;17.10;74.30;;;;;;4961149;28;20041;-73
2021/06/23 08:15:45;;;;;;;10.13;2.72;;;17.20;74.80;;;;;;4962717;28;20038;-73
2021/06/23 08:18:12;;;;;;;9.13;1.77;;;17.30;74.60;;;;;;4962314;28;20059;-73
2021/06/23 08:20:38;;;;;;;11.48;3.33;;;17.50;74.20;;;;;;4962977;28;20023;-74
2021/06/23 08:23:04;;;;;;;12.02;2.72;;;17.60;74.10;;;;;;4962585;28;20475;-73
2021/06/23 08:25:31;;;;;;;11.07;2.95;;;17.80;74.20;;;;;;4961720;28;20394;-72
2021/06/23 08:27:56;;;;;;;7.68;2.65;;;17.90;73.50;;;;;;4961051;28;20027;-73
2021/06/23 08:30:23;;;;;;;6.28;2.40;;;17.90;72.90;;;;;;4962446;28;20032;-73
2021/06/23 08:32:49;;;;;;;6.18;2.10;;;17.90;72.20;;;;;;4962408;28;20039;-72
2021/06/23 08:35:15;;;;;;;15.98;3.17;;;17.80;71.80;;;;;;4962951;28;20030;-75
2021/06/23 08:37:42;;;;;;;12.73;3.22;;;17.80;72.60;;;;;;4961518;28;20028;-73
2021/06/23 08:40:09;;;;;;;9.55;2.80;;;17.90;72.10;;;;;;4961181;28;20589;-75
2021/06/23 08:42:35;;;;;;;10.50;3.17;;;18.00;72.50;;;;;;4962440;28;20027;-70
2021/06/23 08:45:01;;;;;;;12.35;2.45;;;18.20;71.50;;;;;;4962808;28;20146;-71
2021/06/23 08:47:27;;;;;;;10.63;2.97;;;18.30;71.50;;;;;;4961933;28;20062;-72
2021/06/23 08:49:52;;;;;;;9.25;2.80;;;18.30;72.00;;;;;;4960776;28;20061;-72
2021/06/23 08:52:19;;;;;;;5.55;3.25;;;18.40;71.70;;;;;;4962742;28;20093;-71
2021/06/23 08:54:47;;;;;;;11.82;3.00;;;18.50;71.50;;;;;;4975981;28;20023;-72
2021/06/23 08:57:12;;;;;;;9.93;2.53;;;18.60;71.00;;;;;;4962629;28;20371;-72
2021/06/23 08:59:41;;;;;;;6.15;2.67;;;18.60;70.40;;;;;;4961474;28;20039;-72
2021/06/23 09:02:15;;;;;;;4.63;1.58;;;18.60;70.80;;;;;;4976816;28;20049;-72
2021/06/23 09:04:57;;;;;;;9.32;1.75;;;18.60;70.60;;;;;;4960403;28;20384;-72
2021/06/23 09:07:41;;;;;;;5.45;2.50;;;18.50;69.70;;;;;;4961172;28;20110;-72
2021/06/23 09:10:25;;;;;;;6.97;1.98;;;18.30;70.50;;;;;;4964669;28;20031;-73
2021/06/23 09:13:00;;;;;;;5.90;2.42;;;18.30;71.30;;;;;;4961127;28;20035;-73
2021/06/23 09:15:44;;;;;;;9.93;3.47;;;18.30;70.80;;;;;;4961554;28;20093;-72
2021/06/23 09:18:11;;;;;;;15.95;2.95;;;18.50;71.00;;;;;;4961185;28;20027;-72
2021/06/23 09:20:37;;;;;;;13.02;2.75;;;18.80;70.70;;;;;;4960445;28;20034;-71
2021/06/23 09:23:02;;;;;;;12.75;3.85;;;18.90;69.60;;;;;;4961623;28;20101;-73
2021/06/23 09:25:32;;;;;;;13.95;3.03;;;19.10;70.20;;;;;;4961157;28;20031;-73
2021/06/23 09:28:00;;;;;;;8.75;2.78;;;19.30;69.30;;;;;;4960576;28;20027;-72
2021/06/23 09:30:28;;;;;;;8.48;2.70;;;19.40;68.70;;;;;;4961964;28;20362;-73
2021/06/23 09:33:18;;;;;;;11.50;2.78;;;19.40;69.30;;;;;;4961375;28;20039;-73
2021/06/23 09:35:43;;;;;;;11.52;3.15;;;19.60;69.30;;;;;;4974305;28;20027;-73
2021/06/23 09:38:40;;;;;;;6.75;2.92;;;19.80;69.00;;;;;;4962128;28;20061;-72
2021/06/23 09:41:27;;;;;;;11.48;3.13;;;20.10;68.20;;;;;;4961782;28;20090;-71
2021/06/23 09:43:59;;;;;;;8.65;3.42;;;20.20;67.90;;;;;;4958731;28;20047;-71
2021/06/23 09:46:48;;;;;;;8.35;2.25;;;20.40;67.60;;;;;;4962819;28;20027;-72
2021/06/23 09:49:15;;;;;;;8.63;3.28;;;20.50;67.10;;;;;;4961365;28;20117;-72
2021/06/23 09:51:50;;;;;;;9.00;3.38;;;20.50;67.00;;;;;;4960513;28;20062;-72
2021/06/23 09:54:19;;;;;;;8.00;2.70;;;20.80;66.90;;;;;;4961798;28;20031;-71
2021/06/23 09:56:48;;;;;;;10.73;2.83;;;21.00;66.50;;;;;;4976330;28;20062;-75
2021/06/23 09:59:38;;;;;;;8.15;2.00;;;21.20;66.10;;;;;;4960692;28;20023;-72
2021/06/23 10:02:19;;;;;;;13.68;2.67;;;21.40;64.80;;;;;;4960789;28;20046;-72
2021/06/23 10:04:45;;;;;;;8.73;3.05;;;21.40;64.80;;;;;;4960826;28;20058;-71
2021/06/23 10:07:10;;;;;;;7.88;2.80;;;21.60;64.20;;;;;;4961580;28;20057;-72
2021/06/23 10:09:36;;;;;;;6.75;2.40;;;21.70;64.20;;;;;;4959735;28;20039;-72
2021/06/23 10:12:08;;;;;;;5.43;2.40;;;21.80;63.00;;;;;;4960883;28;20030;-72
2021/06/23 10:14:55;;;;;;;7.30;3.13;;;21.70;61.30;;;;;;4961341;28;20035;-72
2021/06/23 10:17:22;;;;;;;5.80;2.63;;;21.50;61.50;;;;;;4966958;28;20023;-71
2021/06/23 10:19:48;;;;;;;4.10;2.22;;;21.40;62.40;;;;;;4959896;28;20049;-71
2021/06/23 10:22:15;;;;;;;4.20;2.65;;;21.40;62.90;;;;;;4962379;28;20031;-71
2021/06/23 10:24:42;;;;;;;11.43;3.75;;;21.40;63.50;;;;;;4960913;28;20105;-72
2021/06/23 10:27:10;;;;;;;9.90;2.88;;;21.60;62.60;;;;;;4960781;28;20028;-71
2021/06/23 10:29:38;;;;;;;14.70;3.70;;;21.60;62.30;;;;;;4961139;28;20067;-72
2021/06/23 10:32:06;;;;;;;8.77;4.05;;;21.60;62.20;;;;;;4960881;28;20035;-72
2021/06/23 10:34:32;;;;;;;6.43;2.85;;;21.60;62.40;;;;;;4960566;28;20038;-72
2021/06/23 10:36:59;;;;;;;9.52;2.97;;;21.80;61.90;;;;;;4960771;28;20030;-73
2021/06/23 10:39:30;;;;;;;10.60;3.28;;;22.00;62.60;;;;;;4974400;28;20054;-75
2021/06/23 10:42:02;;;;;;;15.52;2.90;;;22.30;62.70;;;;;;4959706;28;20031;-73
2021/06/23 10:44:43;;;;;;;9.20;3.30;;;22.50;62.50;;;;;;4961002;28;20092;-73
2021/06/23 10:47:26;;;;;;;6.80;3.35;;;22.70;61.00;;;;;;4960612;28;20438;-73
2021/06/23 10:49:53;;;;;;;10.02;2.70;;;22.60;60.00;;;;;;4961131;28;20039;-73
2021/06/23 10:52:22;;;;;;;12.30;2.85;;;22.50;60.90;;;;;;4961451;28;20028;-73
2021/06/23 10:54:48;;;;;;;9.48;2.72;;;22.60;59.60;;;;;;4960366;28;20030;-73
2021/06/23 10:57:32;;;;;;;6.70;2.58;;;22.30;60.50;;;;;;4975404;28;20094;-73
2021/06/23 11:00:31;;;;;;;12.95;2.28;;;22.40;60.70;;;;;;4958828;28;20041;-74
2021/06/23 11:03:05;;;;;;;11.57;3.58;;;22.60;61.50;;;;;;4962712;28;20039;-74
2021/06/23 11:05:52;;;;;;;9.48;2.28;;;22.90;60.00;;;;;;4963550;28;20486;-74
2021/06/23 11:08:34;;;;;;;6.10;2.28;;;22.80;60.20;;;;;;4978537;28;20484;-70
2021/06/23 11:11:07;;;;;;;31.70;5.00;;;22.90;60.90;;;;;;4963814;28;20031;-72
2021/06/23 11:13:36;;;;;;;9.98;2.67;;;23.10;60.30;;;;;;4963859;28;20034;-71
2021/06/23 11:16:03;;;;;;;11.30;2.50;;;23.20;60.60;;;;;;4962531;28;20033;-71
2021/06/23 11:18:39;;;;;;;7.97;2.50;;;23.20;59.40;;;;;;4960774;28;20038;-72
2021/06/23 11:21:14;;;;;;;13.30;3.10;;;23.10;59.70;;;;;;4969959;28;20110;-72
2021/06/23 11:23:50;;;;;;;8.48;2.58;;;23.10;60.30;;;;;;4964044;28;20023;-73
2021/06/23 11:26:22;;;;;;;6.63;2.60;;;23.20;59.70;;;;;;4978159;28;20039;-73
2021/06/23 11:29:18;;;;;;;9.98;2.83;;;23.00;59.80;;;;;;4962931;28;20062;-73
2021/06/23 11:31:49;;;;;;;13.63;3.53;;;22.70;59.40;;;;;;4962689;28;20034;-74
2021/06/23 11:34:40;;;;;;;10.23;2.85;;;22.50;60.30;;;;;;4963696;28;20039;-74
2021/06/23 11:37:07;;;;;;;6.93;2.88;;;22.50;60.90;;;;;;4963430;28;20038;-74
2021/06/23 11:39:33;;;;;;;10.43;3.70;;;22.70;61.10;;;;;;4962649;28;20097;-75
2021/06/23 11:41:59;;;;;;;9.40;3.00;;;23.10;60.50;;;;;;4963112;28;20364;-74
2021/06/23 11:44:24;;;;;;;9.93;3.20;;;23.20;59.10;;;;;;4963507;28;20058;-74
2021/06/23 11:46:49;;;;;;;6.25;2.80;;;22.90;58.90;;;;;;4962678;28;20110;-73
2021/06/23 11:49:15;;;;;;;7.28;3.22;;;22.50;59.20;;;;;;4963632;28;20093;-72
2021/06/23 11:51:42;;;;;;;7.18;2.25;;;22.30;60.20;;;;;;4961118;28;20042;-73
2021/06/23 11:54:08;;;;;;;3.97;2.25;;;22.10;60.20;;;;;;4963261;28;20027;-71
2021/06/23 11:56:33;;;;;;;14.02;3.47;;;22.10;61.10;;;;;;4962256;28;20053;-73
2021/06/23 11:58:59;;;;;;;15.13;3.58;;;22.10;61.10;;;;;;4962641;28;20019;-71
2021/06/23 12:01:25;;;;;;;10.63;3.40;;;22.30;61.10;;;;;;4962592;28;20082;-73
2021/06/23 12:03:52;;;;;;;10.65;2.83;;;22.40;61.80;;;;;;4962448;28;20027;-72
2021/06/23 12:06:17;;;;;;;9.35;3.00;;;22.50;61.20;;;;;;4975647;28;20034;-73
2021/06/23 12:08:43;;;;;;;11.32;3.17;;;22.60;60.70;;;;;;4963081;28;20051;-74
2021/06/23 12:11:08;;;;;;;15.23;3.47;;;22.70;61.40;;;;;;4962705;28;20054;-73
2021/06/23 12:13:34;;;;;;;9.35;3.97;;;22.70;61.00;;;;;;4962143;28;20917;-73
2021/06/23 12:16:00;;;;;;;15.25;4.07;;;22.80;60.50;;;;;;4963068;28;20027;-72
2021/06/23 12:18:25;;;;;;;13.75;3.13;;;22.90;60.30;;;;;;4976920;28;20033;-74
2021/06/23 12:20:51;;;;;;;8.85;3.58;;;23.00;60.60;;;;;;4962570;28;20035;-74
2021/06/23 12:23:16;;;;;;;11.70;3.45;;;23.20;61.10;;;;;;4962178;28;20035;-75
2021/06/23 12:25:45;;;;;;;6.50;2.72;;;23.30;60.30;;;;;;5016522;23;20057;-80
2021/06/23 12:28:12;;;;;;;6.78;2.92;;;23.30;60.00;;;;;;5007685;28;20053;-80
2021/06/23 12:30:39;;;;;;;9.88;3.20;;;23.30;60.00;;;;;;5011882;28;20025;-80
2021/06/23 12:33:07;;;;;;;7.60;3.42;;;23.30;59.20;;;;;;5011261;28;20404;-80
2021/06/23 12:35:34;;;;;;;11.52;3.08;;;23.30;60.10;;;;;;5007723;28;20085;-79
2021/06/23 12:38:00;;;;;;;15.57;3.80;;;23.40;59.30;;;;;;5003923;28;20026;-79
2021/06/23 12:40:26;;;;;;;13.18;3.88;;;23.50;59.80;;;;;;5003452;28;20026;-79
2021/06/23 12:42:51;;;;;;;12.25;3.70;;;23.50;58.70;;;;;;4998331;28;20022;-83
2021/06/23 12:45:17;;;;;;;7.38;3.58;;;23.40;58.90;;;;;;5010382;28;20022;-82
2021/06/23 12:47:43;;;;;;;8.77;2.95;;;23.30;59.10;;;;;;5004160;28;20033;-77
2021/06/23 12:50:11;;;;;;;10.77;3.35;;;23.30;59.60;;;;;;5004893;28;20034;-76
2021/06/23 12:52:36;;;;;;;17.48;4.00;;;23.30;58.90;;;;;;5006739;28;20086;-77
2021/06/23 12:55:02;;;;;;;18.52;4.50;;;23.30;59.40;;;;;;5007837;28;20030;-76
2021/06/23 12:57:28;;;;;;;5.30;3.63;;;23.40;59.40;;;;;;5007416;28;20695;-76
2021/06/23 12:59:54;;;;;;;10.02;4.10;;;23.50;58.30;;;;;;5006111;28;20044;-76
2021/06/23 13:02:19;;;;;;;9.93;3.15;;;23.40;58.40;;;;;;5006916;28;20101;-76
2021/06/23 13:04:45;;;;;;;8.82;3.88;;;23.60;58.70;;;;;;5007140;28;20040;-76
2021/06/23 13:07:11;;;;;;;6.88;2.78;;;23.70;58.40;;;;;;5006637;28;20481;-78
2021/06/23 13:09:36;;;;;;;16.05;5.00;;;23.60;58.70;;;;;;5005584;28;20080;-76
2021/06/23 13:12:02;;;;;;;12.30;3.45;;;23.90;59.20;;;;;;5000849;28;20072;-77
2021/06/23 13:14:28;;;;;;;5.97;3.15;;;24.30;58.40;;;;;;5023512;28;20029;-76